Time;durP1;ratioP1;P1;durP2;ratioP2;P2;SDS_P1;SDS_P2;PMS_P1;PMS_P2;Temp;Humidity;BMP_temperature;BMP_pressure;BME280_temperature;BME280_humidity;BME280_pressure;Samples;Min_cycle;Max_cycle;Signal;HPM_P1;HPM_P2
2022/07/06 00:02:04;;;;;;;1.95;0.80;;;;;;;15.33;64.91;101627.97;6227308;22;20122;-82
2022/07/06 00:04:31;;;;;;;3.10;0.98;;;;;;;15.34;64.50;101630.59;6227795;23;20082;-83
2022/07/06 00:06:58;;;;;;;1.38;0.88;;;;;;;15.31;64.49;101625.34;6227201;23;20028;-80
2022/07/06 00:09:25;;;;;;;0.98;0.85;;;;;;;15.24;64.45;101615.78;6202631;23;20023;-81
2022/07/06 00:11:51;;;;;;;3.33;0.90;;;;;;;15.14;64.81;101620.28;6225399;23;20074;-80
2022/07/06 00:14:18;;;;;;;2.55;0.80;;;;;;;15.03;65.83;101622.16;6202247;23;20028;-83
2022/07/06 00:16:45;;;;;;;1.45;0.60;;;;;;;14.95;66.36;101624.03;6203033;23;20024;-81
2022/07/06 00:19:11;;;;;;;1.40;0.60;;;;;;;14.84;66.51;101622.41;6202773;23;20063;-80
2022/07/06 00:21:38;;;;;;;2.22;0.70;;;;;;;14.76;67.29;101618.97;6224957;23;20089;-83
2022/07/06 00:24:07;;;;;;;3.00;0.68;;;;;;;14.68;67.34;101616.44;6227410;23;20658;-81
2022/07/06 00:26:34;;;;;;;5.57;1.10;;;;;;;14.61;68.20;101616.47;6227652;23;20020;-82
2022/07/06 00:29:01;;;;;;;0.50;0.50;;;;;;;14.56;68.25;101616.50;6205356;23;20066;-80
2022/07/06 00:31:27;;;;;;;3.80;0.60;;;;;;;14.55;68.67;101617.41;6203534;23;20016;-84
2022/07/06 00:33:54;;;;;;;0.60;0.30;;;;;;;14.56;68.44;101620.03;6203077;23;20020;-84
2022/07/06 00:36:22;;;;;;;0.88;0.75;;;;;;;14.59;68.69;101610.31;6228096;23;20416;-82
2022/07/06 00:38:48;;;;;;;2.45;0.70;;;;;;;14.63;68.38;101606.81;6227681;23;20044;-83
2022/07/06 00:41:15;;;;;;;1.75;0.98;;;;;;;14.67;68.59;101611.19;6199654;23;20048;-82
2022/07/06 00:43:51;;;;;;;0.55;0.55;;;;;;;14.69;68.64;101609.38;6226686;23;20020;-81
2022/07/06 00:46:18;;;;;;;2.92;0.75;;;;;;;14.64;68.76;101614.72;6229521;23;20111;-83
2022/07/06 00:48:45;;;;;;;0.88;0.50;;;;;;;14.59;68.87;101618.22;6227268;23;20070;-84
2022/07/06 00:51:12;;;;;;;5.25;0.90;;;;;;;14.56;68.82;101611.22;6199074;23;20030;-84
2022/07/06 00:53:39;;;;;;;1.73;0.50;;;;;;;14.56;68.64;101621.78;6225909;23;20064;-81
2022/07/06 00:56:09;;;;;;;1.33;0.75;;;;;;;14.59;68.35;101618.22;6226034;23;20905;-82
2022/07/06 00:58:36;;;;;;;1.05;1.00;;;;;;;14.62;68.39;101615.59;6226397;23;20036;-81
2022/07/06 01:01:03;;;;;;;1.85;0.63;;;;;;;14.68;68.25;101620.84;6199611;22;20494;-83
2022/07/06 01:03:29;;;;;;;5.40;0.93;;;;;;;14.70;68.36;101616.41;6203502;23;20043;-83
2022/07/06 01:05:57;;;;;;;1.90;0.80;;;;;;;14.70;68.29;101621.66;6205772;23;20329;-81
2022/07/06 01:08:24;;;;;;;0.82;0.77;;;;;;;14.69;68.17;101612.91;6206906;23;20635;-83
2022/07/06 01:10:52;;;;;;;1.60;0.80;;;;;;;14.67;68.38;101611.19;6205611;23;20513;-82
2022/07/06 01:13:18;;;;;;;0.73;0.68;;;;;;;14.67;68.26;101621.72;6206171;23;20359;-82
2022/07/06 01:15:45;;;;;;;3.22;0.90;;;;;;;14.68;68.46;101618.19;6207229;23;20028;-83
2022/07/06 01:18:12;;;;;;;1.20;0.63;;;;;;;14.69;68.07;101614.66;6201485;23;20470;-81
2022/07/06 01:20:38;;;;;;;1.05;0.80;;;;;;;14.69;68.30;101606.75;6199016;23;20029;-82
2022/07/06 01:23:07;;;;;;;0.70;0.70;;;;;;;14.64;68.56;101613.81;6175798;23;20025;-81
2022/07/06 01:25:37;;;;;;;2.85;1.05;;;;;;;14.58;68.66;101611.25;6176920;23;20028;-80
2022/07/06 01:28:04;;;;;;;1.10;0.65;;;;;;;14.60;68.45;101617.34;6177758;23;20123;-82
2022/07/06 01:30:30;;;;;;;1.65;1.20;;;;;;;14.59;68.29;101615.59;6178170;23;20124;-81
2022/07/06 01:32:57;;;;;;;2.80;1.10;;;;;;;14.60;68.47;101617.34;6199229;23;20024;-82
2022/07/06 01:35:26;;;;;;;2.40;1.63;;;;;;;14.62;68.68;101615.59;6200958;23;20021;-80
2022/07/06 01:37:53;;;;;;;2.28;0.50;;;;;;;14.64;68.28;101620.00;6176248;23;20028;-82
2022/07/06 01:40:20;;;;;;;2.25;0.80;;;;;;;14.66;68.36;101620.81;6177047;23;20027;-81
2022/07/06 01:42:47;;;;;;;2.28;0.50;;;;;;;14.67;68.30;101619.94;6198960;23;20768;-81
2022/07/06 01:45:13;;;;;;;2.08;0.60;;;;;;;14.66;68.26;101612.91;6179524;23;20059;-81
2022/07/06 01:47:40;;;;;;;5.75;2.78;;;;;;;14.65;68.37;101619.09;6178726;23;20029;-82
2022/07/06 01:50:09;;;;;;;1.58;0.68;;;;;;;14.61;68.46;101614.69;6201506;23;20032;-81
2022/07/06 01:52:36;;;;;;;0.75;0.73;;;;;;;14.59;68.41;101607.69;6173188;23;20067;-83
2022/07/06 01:55:07;;;;;;;2.67;0.80;;;;;;;14.54;68.62;101610.41;6173681;23;20103;-80
2022/07/06 01:57:34;;;;;;;0.75;0.35;;;;;;;14.54;68.41;101610.41;6198313;23;20048;-80
2022/07/06 02:00:00;;;;;;;1.48;0.70;;;;;;;14.54;68.78;101611.25;6203686;23;20143;-81
2022/07/06 02:02:27;;;;;;;4.65;0.82;;;;;;;14.50;68.97;101606.06;6199819;23;20020;-81
2022/07/06 02:04:55;;;;;;;4.32;0.70;;;;;;;14.46;68.96;101599.06;6176800;23;20067;-79
2022/07/06 02:07:22;;;;;;;5.38;0.88;;;;;;;14.44;69.25;101603.47;6200374;23;20017;-80
2022/07/06 02:09:48;;;;;;;2.13;0.43;;;;;;;14.42;69.37;101603.50;6200821;23;20028;-82
2022/07/06 02:12:15;;;;;;;1.48;0.60;;;;;;;14.39;69.55;101601.75;6170961;23;20360;-83
2022/07/06 02:14:42;;;;;;;0.77;0.77;;;;;;;14.36;70.05;101600.91;6175635;23;20143;-81
2022/07/06 02:17:08;;;;;;;0.70;0.65;;;;;;;14.31;69.52;101600.94;6201698;23;20016;-83
2022/07/06 02:19:35;;;;;;;3.55;0.70;;;;;;;14.30;70.08;101600.97;6175907;23;20030;-79
2022/07/06 02:22:03;;;;;;;3.03;0.60;;;;;;;14.26;70.48;101599.25;6197718;23;20091;-81
2022/07/06 02:24:29;;;;;;;1.98;1.10;;;;;;;14.23;70.34;101608.03;6197967;23;20028;-82
2022/07/06 02:26:56;;;;;;;1.10;0.68;;;;;;;14.17;70.85;101606.34;6198997;23;20763;-80
2022/07/06 02:29:22;;;;;;;0.98;0.70;;;;;;;14.13;70.99;101616.91;6205658;22;20111;-80
2022/07/06 02:31:49;;;;;;;3.95;1.25;;;;;;;14.14;71.12;101618.66;6204697;23;20128;-81
2022/07/06 02:34:16;;;;;;;0.98;0.90;;;;;;;14.12;71.13;101609.88;6203531;23;20028;-80
2022/07/06 02:36:42;;;;;;;2.50;0.50;;;;;;;14.11;71.46;101610.78;6204932;23;20028;-81
2022/07/06 02:39:09;;;;;;;1.08;0.50;;;;;;;14.12;71.43;101613.41;6205101;23;20051;-81
2022/07/06 02:41:36;;;;;;;1.50;0.80;;;;;;;14.13;71.57;101615.16;6178334;23;20078;-82
2022/07/06 02:44:02;;;;;;;4.18;0.90;;;;;;;14.15;71.71;101616.00;6180361;23;20031;-83
2022/07/06 02:46:29;;;;;;;6.18;0.90;;;;;;;14.15;71.96;101621.28;6181208;23;20439;-81
2022/07/06 02:48:57;;;;;;;3.03;1.00;;;;;;;14.15;71.92;101618.63;6181290;23;20034;-81
2022/07/06 02:51:24;;;;;;;5.13;1.90;;;;;;;14.12;72.44;101613.41;6178745;23;20149;-83
2022/07/06 02:54:00;;;;;;;3.63;1.00;;;;;;;14.09;72.41;101618.69;6180037;23;20367;-83
2022/07/06 02:56:27;;;;;;;2.47;1.17;;;;;;;14.09;72.22;101618.69;6190318;23;20028;-81
2022/07/06 02:58:54;;;;;;;3.08;1.00;;;;;;;14.10;72.32;101622.22;6184970;23;20074;-81
2022/07/06 03:01:21;;;;;;;2.45;1.45;;;;;;;14.10;72.31;101617.81;6205133;23;20016;-82
2022/07/06 03:03:48;;;;;;;1.70;0.68;;;;;;;14.10;72.17;101616.94;6179917;23;20030;-81
2022/07/06 03:06:15;;;;;;;3.10;0.65;;;;;;;14.04;72.72;101621.38;6205452;23;20487;-82
2022/07/06 03:08:42;;;;;;;1.55;0.93;;;;;;;13.94;73.22;101618.84;6180295;23;20024;-81
2022/07/06 03:11:09;;;;;;;2.15;1.10;;;;;;;13.84;74.00;101620.63;6178786;23;20020;-85
2022/07/06 03:13:36;;;;;;;2.55;0.73;;;;;;;13.72;74.66;101611.94;6179868;23;20434;-80
2022/07/06 03:16:03;;;;;;;2.92;0.60;;;;;;;13.63;75.41;101613.75;6206472;23;20108;-82
2022/07/06 03:18:30;;;;;;;0.93;0.70;;;;;;;13.59;75.65;101617.31;6180649;23;20074;-80
2022/07/06 03:20:57;;;;;;;1.38;0.88;;;;;;;13.55;76.25;101622.56;6202618;23;20016;-79
2022/07/06 03:23:24;;;;;;;3.53;0.70;;;;;;;13.54;76.57;101614.69;6178142;23;20118;-80
2022/07/06 03:25:50;;;;;;;2.53;0.93;;;;;;;13.55;76.57;101616.44;6204572;23;20020;-83
2022/07/06 03:28:17;;;;;;;6.38;0.95;;;;;;;13.57;76.94;101617.28;6180264;23;20048;-83
2022/07/06 03:30:44;;;;;;;5.03;1.00;;;;;;;13.61;76.47;101621.69;6182633;23;20081;-82
2022/07/06 03:33:10;;;;;;;2.08;1.10;;;;;;;13.61;76.68;101619.03;6179900;23;20019;-84
2022/07/06 03:35:37;;;;;;;1.80;0.73;;;;;;;13.68;76.22;101623.38;6206667;23;20093;-82
2022/07/06 03:38:03;;;;;;;2.28;0.80;;;;;;;13.73;76.21;101624.22;6180228;23;20028;-82
2022/07/06 03:40:30;;;;;;;2.45;0.73;;;;;;;13.76;76.19;101625.94;6180490;23;20056;-80
2022/07/06 03:42:57;;;;;;;5.82;0.85;;;;;;;13.80;76.05;101624.19;6202288;23;20051;-84
2022/07/06 03:45:24;;;;;;;4.05;0.80;;;;;;;13.76;75.97;101620.69;6207289;23;20087;-81
2022/07/06 03:47:51;;;;;;;1.63;0.95;;;;;;;13.73;76.24;101625.97;6181759;23;20020;-81
2022/07/06 03:50:18;;;;;;;1.75;0.90;;;;;;;13.75;76.15;101624.19;6154850;23;20445;-82
2022/07/06 03:52:45;;;;;;;5.55;0.70;;;;;;;13.77;75.98;101618.94;6177628;23;20093;-83
2022/07/06 03:55:13;;;;;;;3.42;0.80;;;;;;;13.77;76.28;101617.19;6205837;23;20102;-83
2022/07/06 03:57:40;;;;;;;3.28;1.38;;;;;;;13.78;76.04;101616.31;6180922;23;20024;-82
2022/07/06 04:00:09;;;;;;;3.08;0.90;;;;;;;13.80;76.38;101619.78;6180811;23;20023;-82
2022/07/06 04:02:36;;;;;;;1.42;0.80;;;;;;;13.76;76.41;101619.81;6180113;23;20016;-81
2022/07/06 04:05:08;;;;;;;2.25;0.85;;;;;;;13.69;76.80;101630.38;6182608;23;20020;-80
2022/07/06 04:07:35;;;;;;;2.55;0.90;;;;;;;13.66;77.33;101632.16;6206984;23;20016;-82
2022/07/06 04:10:02;;;;;;;2.65;1.70;;;;;;;13.64;77.44;101633.94;6181088;23;20044;-83
2022/07/06 04:12:29;;;;;;;3.75;0.82;;;;;;;13.67;77.28;101637.41;6177859;23;20016;-83
2022/07/06 04:14:59;;;;;;;2.10;0.80;;;;;;;13.70;76.89;101632.13;6181894;23;20027;-80
2022/07/06 04:20:10;;;;;;;2.55;0.70;;;;;;;13.71;77.04;101643.53;6184835;23;20322;-83
2022/07/06 04:22:40;;;;;;;8.05;1.38;;;;;;;13.72;76.91;101632.13;6180367;23;20546;-84
2022/07/06 04:25:12;;;;;;;8.10;1.17;;;;;;;13.72;77.28;101640.00;6182433;23;20028;-81
2022/07/06 04:27:38;;;;;;;4.25;0.80;;;;;;;13.78;77.09;101636.47;6209101;23;20027;-81
2022/07/06 04:30:07;;;;;;;3.88;1.02;;;;;;;13.82;76.86;101646.97;6184106;23;20055;-80
2022/07/06 04:32:33;;;;;;;5.38;1.25;;;;;;;13.87;76.92;101639.91;6157936;23;20016;-80
2022/07/06 04:35:00;;;;;;;10.25;1.70;;;;;;;13.97;76.82;101647.75;6182285;23;20028;-81
2022/07/06 04:37:27;;;;;;;4.30;1.88;;;;;;;14.02;76.36;101646.81;6180660;23;20314;-81
2022/07/06 04:39:53;;;;;;;4.72;1.55;;;;;;;14.09;76.01;101645.00;6182902;23;20024;-81
2022/07/06 04:42:20;;;;;;;4.30;1.75;;;;;;;14.22;75.73;101648.44;6208180;23;20099;-81
2022/07/06 04:44:51;;;;;;;2.70;1.60;;;;;;;14.34;75.28;101650.06;6186035;23;20028;-81
2022/07/06 04:47:19;;;;;;;4.57;1.50;;;;;;;14.44;74.85;101642.97;6212263;23;20470;-84
2022/07/06 04:49:45;;;;;;;7.93;2.25;;;;;;;14.48;74.61;101647.34;6185075;23;20028;-83
2022/07/06 04:52:12;;;;;;;5.32;2.20;;;;;;;14.50;74.71;101643.78;6209818;23;20024;-81
2022/07/06 04:54:41;;;;;;;5.45;1.83;;;;;;;14.52;74.57;101641.13;6185724;23;20103;-81
2022/07/06 04:57:11;;;;;;;7.15;2.15;;;;;;;14.52;74.54;101646.41;6184335;23;20024;-84
2022/07/06 04:59:40;;;;;;;6.82;2.10;;;;;;;14.56;74.32;101645.50;6184999;23;20080;-80
2022/07/06 05:02:07;;;;;;;3.38;1.42;;;;;;;14.56;74.37;101646.38;6185099;23;20017;-80
2022/07/06 05:04:36;;;;;;;7.55;1.92;;;;;;;14.61;74.32;101640.19;6207610;23;20020;-81
2022/07/06 05:07:03;;;;;;;7.63;1.95;;;;;;;14.72;74.16;101639.22;6184173;23;20023;-82
2022/07/06 05:09:30;;;;;;;4.85;1.35;;;;;;;14.83;73.50;101644.38;6183383;23;20027;-81
2022/07/06 05:11:56;;;;;;;5.28;1.75;;;;;;;14.91;73.01;101636.38;6210556;23;20016;-80
2022/07/06 05:14:24;;;;;;;8.02;1.73;;;;;;;14.95;72.98;101637.22;6182672;23;20020;-80
2022/07/06 05:16:51;;;;;;;3.75;1.27;;;;;;;14.93;73.13;101641.63;6211171;23;20058;-80
2022/07/06 05:19:17;;;;;;;2.28;1.15;;;;;;;14.94;72.93;101639.00;6185888;23;20070;-82
2022/07/06 05:21:47;;;;;;;1.83;1.20;;;;;;;14.98;72.95;101642.44;6208957;23;20124;-81
2022/07/06 05:24:15;;;;;;;3.38;1.30;;;;;;;15.03;72.64;101645.91;6207766;23;20408;-83
2022/07/06 05:26:43;;;;;;;2.72;1.20;;;;;;;14.99;73.06;101645.09;6184905;23;20020;-80
2022/07/06 05:29:09;;;;;;;3.97;1.13;;;;;;;14.91;73.61;101644.28;6160219;22;20028;-79
2022/07/06 05:31:36;;;;;;;4.57;0.85;;;;;;;14.91;73.59;101651.34;6184936;23;20027;-83
2022/07/06 05:34:03;;;;;;;2.03;1.35;;;;;;;15.01;73.58;101652.97;6209349;23;20315;-83
2022/07/06 05:36:30;;;;;;;6.88;1.73;;;;;;;15.06;73.26;101656.44;6186764;23;20320;-82
2022/07/06 05:38:57;;;;;;;6.55;1.20;;;;;;;15.16;72.89;101660.72;6187063;23;20062;-83
2022/07/06 05:41:25;;;;;;;3.58;1.13;;;;;;;15.20;72.70;101658.88;6209536;23;20451;-80
2022/07/06 05:43:51;;;;;;;4.10;1.67;;;;;;;15.22;72.98;101652.69;6185147;23;20035;-79
2022/07/06 05:46:26;;;;;;;3.38;1.20;;;;;;;15.34;72.49;101651.72;6186198;23;20043;-81
2022/07/06 05:51:38;;;;;;;3.97;1.20;;;;;;;15.58;71.05;101659.28;6188192;23;20012;-82
2022/07/06 05:54:07;;;;;;;2.38;0.82;;;;;;;15.57;70.96;101652.28;6183245;23;20066;-82
2022/07/06 05:56:36;;;;;;;1.10;0.65;;;;;;;15.67;70.56;101651.25;6209137;23;20107;-80
2022/07/06 05:59:03;;;;;;;3.35;0.82;;;;;;;15.83;69.89;101655.44;6187140;23;20024;-83
2022/07/06 06:01:33;;;;;;;2.28;1.10;;;;;;;15.92;69.38;101654.44;6160486;23;20016;-83
2022/07/06 06:04:00;;;;;;;7.40;2.45;;;;;;;16.00;69.06;101657.84;6183077;23;20050;-81
2022/07/06 06:06:31;;;;;;;4.00;1.25;;;;;;;16.03;68.76;101651.63;6184699;23;20103;-80
2022/07/06 06:08:58;;;;;;;5.80;1.23;;;;;;;16.07;68.56;101658.59;6211007;23;20123;-83
2022/07/06 06:11:24;;;;;;;5.82;1.02;;;;;;;16.12;68.08;101661.19;6185254;23;20806;-82
2022/07/06 06:13:51;;;;;;;3.80;1.02;;;;;;;16.14;67.69;101659.38;6185115;23;20027;-80
2022/07/06 06:16:18;;;;;;;4.43;1.40;;;;;;;16.18;67.41;101656.66;6187719;23;20024;-82
2022/07/06 06:18:44;;;;;;;3.45;1.50;;;;;;;16.14;67.08;101660.25;6209986;23;20020;-79
2022/07/06 06:21:11;;;;;;;6.10;1.05;;;;;;;16.10;67.54;101665.59;6181832;23;20028;-81
2022/07/06 06:23:38;;;;;;;5.72;1.10;;;;;;;16.05;67.53;101663.06;6208899;23;20102;-81
2022/07/06 06:26:08;;;;;;;4.38;1.00;;;;;;;16.04;67.36;101661.31;6208528;23;20059;-82
2022/07/06 06:28:36;;;;;;;2.40;0.70;;;;;;;16.07;67.44;101666.53;6186753;23;20066;-82
2022/07/06 06:31:04;;;;;;;1.77;0.75;;;;;;;16.04;67.29;101663.94;6190944;23;20031;-84
2022/07/06 06:33:31;;;;;;;3.03;0.95;;;;;;;15.96;67.98;101671.97;6189320;23;20047;-82
2022/07/06 06:35:58;;;;;;;6.28;1.00;;;;;;;16.03;67.53;101663.09;6185384;23;20028;-81
2022/07/06 06:38:27;;;;;;;5.20;1.00;;;;;;;16.15;67.24;101672.59;6186048;23;20074;-84
2022/07/06 06:40:54;;;;;;;5.15;1.52;;;;;;;16.26;66.64;101666.25;6211583;23;20016;-82
2022/07/06 06:43:21;;;;;;;4.70;0.80;;;;;;;16.27;66.26;101666.22;6185992;23;20082;-82
2022/07/06 06:45:48;;;;;;;8.73;0.73;;;;;;;16.19;66.77;101676.91;6190896;23;20428;-80
2022/07/06 06:48:17;;;;;;;10.20;1.33;;;;;;;16.27;66.12;101676.78;6219485;23;20016;-82
2022/07/06 06:50:45;;;;;;;1.27;0.70;;;;;;;16.23;65.94;101683.03;6186866;23;20024;-83
2022/07/06 06:53:15;;;;;;;2.83;0.68;;;;;;;16.28;65.62;101673.25;6168736;23;20024;-87
2022/07/06 06:55:47;;;;;;;4.03;1.20;;;;;;;16.35;65.37;101681.97;6198321;23;20374;-86
2022/07/06 06:58:17;;;;;;;9.90;1.63;;;;;;;16.40;65.16;101679.22;6196623;23;20575;-87
2022/07/06 07:00:47;;;;;;;6.82;1.85;;;;;;;16.42;64.95;101680.06;6193859;23;20024;-87
2022/07/06 07:03:17;;;;;;;5.82;0.90;;;;;;;16.51;64.52;101679.91;6192202;23;20463;-87
2022/07/06 07:05:44;;;;;;;5.13;0.73;;;;;;;16.56;64.35;101686.00;6196444;23;20020;-84
2022/07/06 07:08:11;;;;;;;1.50;0.77;;;;;;;16.56;64.21;101686.00;6195109;23;20027;-86
2022/07/06 07:10:38;;;;;;;3.38;0.88;;;;;;;16.57;63.94;101685.09;6196720;23;20645;-87
2022/07/06 07:13:08;;;;;;;3.38;0.73;;;;;;;16.70;63.71;101689.25;6196826;23;20012;-86
2022/07/06 07:15:35;;;;;;;3.58;1.52;;;;;;;16.78;62.36;101696.16;6198915;23;20024;-85
2022/07/06 07:18:02;;;;;;;6.78;1.05;;;;;;;16.76;62.79;101698.84;6194623;23;20039;-87
2022/07/06 07:20:29;;;;;;;1.80;0.47;;;;;;;16.78;61.91;101696.16;6191179;23;20074;-86
2022/07/06 07:22:57;;;;;;;2.38;0.90;;;;;;;16.69;62.14;101702.50;6191046;23;20012;-85
2022/07/06 07:25:24;;;;;;;3.60;0.82;;;;;;;16.79;61.98;101708.50;6217085;23;20023;-86
2022/07/06 07:27:50;;;;;;;5.63;1.25;;;;;;;16.78;61.99;101707.63;6188097;23;20027;-85
2022/07/06 07:30:17;;;;;;;1.50;0.93;;;;;;;16.83;61.91;101713.72;6195105;23;20036;-86
2022/07/06 07:32:44;;;;;;;3.63;0.82;;;;;;;16.93;61.76;101717.09;6195542;23;20074;-86
2022/07/06 07:35:14;;;;;;;3.63;0.68;;;;;;;17.06;61.66;101711.56;6194724;23;20085;-85
2022/07/06 07:37:41;;;;;;;4.70;0.60;;;;;;;17.07;61.47;101716.84;6197316;23;20016;-87
2022/07/06 07:40:11;;;;;;;4.53;0.85;;;;;;;17.07;60.58;101706.25;6190150;23;20062;-86
2022/07/06 07:42:40;;;;;;;3.25;1.05;;;;;;;17.00;60.56;101715.19;6189946;23;20460;-85
2022/07/06 07:45:09;;;;;;;2.72;0.77;;;;;;;17.02;61.05;101714.25;6223724;23;20074;-87
2022/07/06 07:47:36;;;;;;;5.03;1.30;;;;;;;17.16;59.41;101719.28;6199811;23;20024;-85
2022/07/06 07:50:04;;;;;;;3.20;0.65;;;;;;;17.31;58.86;101719.91;6198148;23;20024;-85
2022/07/06 07:52:34;;;;;;;3.28;0.50;;;;;;;17.54;57.24;101719.44;6196252;23;20016;-86
2022/07/06 07:55:19;;;;;;;5.32;0.75;;;;;;;17.68;56.71;101722.66;6206633;23;20047;-87
2022/07/06 07:57:55;;;;;;;2.10;0.63;;;;;;;17.85;55.38;101718.78;6183784;23;20400;-86
2022/07/06 08:00:43;;;;;;;;;;;;;;;;;;;;;
2022/07/06 08:03:21;;;;;;;1.73;0.60;;;;;;;18.17;54.49;101712.75;6209615;23;20019;-86
2022/07/06 08:05:56;;;;;;;1.00;0.47;;;;;;;18.19;53.43;101710.94;6210033;23;20027;-85
2022/07/06 08:08:34;;;;;;;3.33;0.32;;;;;;;18.15;51.95;101708.41;6232255;23;20020;-85
2022/07/06 08:11:10;;;;;;;0.47;0.20;;;;;;;18.20;51.61;101711.81;6231163;23;20030;-87
2022/07/06 08:13:43;;;;;;;0.80;0.40;;;;;;;18.21;50.89;101705.59;6183815;23;20023;-87
2022/07/06 08:16:16;;;;;;;1.42;0.45;;;;;;;18.26;50.69;101706.34;6198732;23;20027;-86
2022/07/06 08:18:43;;;;;;;1.73;0.30;;;;;;;18.28;50.56;101712.50;6221028;23;20016;-86
2022/07/06 08:21:13;;;;;;;2.17;0.40;;;;;;;18.41;51.00;101718.38;6170707;23;20452;-86
2022/07/06 08:23:40;;;;;;;1.90;0.40;;;;;;;18.67;50.36;101714.19;6195641;23;20052;-87
2022/07/06 08:26:07;;;;;;;1.48;0.40;;;;;;;18.87;50.19;101712.81;6195097;23;20082;-85
2022/07/06 08:28:34;;;;;;;1.40;0.50;;;;;;;19.11;49.09;101714.81;6193769;23;20024;-86
2022/07/06 08:31:01;;;;;;;3.67;1.15;;;;;;;19.26;48.73;101704.69;6213003;23;20024;-87
2022/07/06 08:33:31;;;;;;;1.15;0.60;;;;;;;19.55;48.21;101702.97;6220148;23;20043;-88
2022/07/06 08:36:13;;;;;;;2.35;0.57;;;;;;;19.97;46.92;101707.88;6194147;23;20028;-84
2022/07/06 08:38:40;;;;;;;2.42;0.43;;;;;;;20.17;46.47;101705.47;6197183;23;20021;-86
2022/07/06 08:41:08;;;;;;;2.40;0.30;;;;;;;20.44;45.73;101697.50;6193026;23;20096;-87
2022/07/06 08:43:37;;;;;;;2.53;0.57;;;;;;;20.69;45.27;101698.44;6219567;23;20048;-87
2022/07/06 08:46:05;;;;;;;4.53;0.50;;;;;;;20.62;44.89;101698.69;6173776;23;20036;-85
2022/07/06 08:48:40;;;;;;;2.85;0.70;;;;;;;20.41;44.98;101710.03;6194786;23;20052;-86
2022/07/06 08:51:07;;;;;;;2.95;0.50;;;;;;;20.14;46.08;101702.03;6165333;23;20075;-87
2022/07/06 08:53:39;;;;;;;2.00;0.50;;;;;;;20.42;45.84;101701.13;6190890;23;20020;-86
2022/07/06 08:56:09;;;;;;;0.88;0.40;;;;;;;20.67;45.16;101694.03;6189156;23;20091;-87
2022/07/06 08:58:41;;;;;;;1.05;0.30;;;;;;;20.88;43.83;101704.03;6193177;23;20021;-86
2022/07/06 09:01:11;;;;;;;1.35;0.40;;;;;;;20.55;43.79;101699.78;6194070;23;20035;-87
2022/07/06 09:03:49;;;;;;;1.20;0.50;;;;;;;20.86;44.13;101693.44;6216321;23;20016;-85
2022/07/06 09:06:21;;;;;;;6.38;0.47;;;;;;;21.30;42.88;101684.75;6194520;23;20047;-85
2022/07/06 09:08:50;;;;;;;3.13;0.50;;;;;;;21.31;41.88;101681.16;6194443;23;20025;-86
2022/07/06 09:11:17;;;;;;;4.40;0.50;;;;;;;20.88;41.27;101682.75;6222440;23;20024;-86
2022/07/06 09:13:47;;;;;;;2.70;0.55;;;;;;;20.40;42.24;101701.19;6215973;23;20403;-88
2022/07/06 09:16:17;;;;;;;1.95;0.40;;;;;;;20.44;42.73;101692.19;6217284;23;20031;-86
2022/07/06 09:18:48;;;;;;;3.38;0.60;;;;;;;21.02;41.77;101695.56;6193843;23;20098;-87
2022/07/06 09:21:32;;;;;;;1.20;0.35;;;;;;;20.99;41.42;101697.41;6218748;23;20047;-85
2022/07/06 09:24:03;;;;;;;1.50;0.50;;;;;;;20.65;41.66;101706.53;6217449;23;20024;-86
2022/07/06 09:26:30;;;;;;;3.55;0.50;;;;;;;20.24;42.85;101707.94;6219868;23;20050;-87
2022/07/06 09:28:59;;;;;;;1.63;0.70;;;;;;;20.04;43.46;101709.44;6197415;23;20047;-85
2022/07/06 09:31:26;;;;;;;2.25;0.47;;;;;;;19.89;43.68;101712.59;6197012;23;20028;-86
2022/07/06 09:34:11;;;;;;;0.73;0.28;;;;;;;19.67;44.59;101707.88;6225474;23;20020;-86
2022/07/06 09:36:52;;;;;;;2.75;0.60;;;;;;;19.40;44.95;101710.47;6204298;23;20361;-86
2022/07/06 09:39:30;;;;;;;10.10;0.80;;;;;;;19.25;45.16;101703.78;6228006;23;20040;-86
2022/07/06 09:42:08;;;;;;;;;;;;;;;19.18;45.42;101705.75;6228292;23;20120;-85
2022/07/06 09:44:39;;;;;;;4.25;0.35;;;;;;;19.14;45.24;101701.44;6204415;23;19972;-85
2022/07/06 09:47:11;;;;;;;22.15;2.70;;;;;;;19.09;45.16;101698.06;6228230;23;20103;-86
2022/07/06 09:49:41;;;;;;;2.65;0.40;;;;;;;18.96;45.15;101696.66;6199305;23;20069;-85
2022/07/06 09:52:11;;;;;;;9.65;0.80;;;;;;;19.14;44.91;101705.91;6196620;23;20030;-87
2022/07/06 09:54:44;;;;;;;1.75;0.50;;;;;;;19.37;44.34;101694.59;6175842;23;20025;-87
2022/07/06 09:57:22;;;;;;;4.80;0.50;;;;;;;19.51;43.67;101703.03;6200741;23;20020;-87
2022/07/06 09:59:52;;;;;;;7.28;0.60;;;;;;;19.65;43.41;101701.75;6199002;23;20024;-85
2022/07/06 10:02:31;;;;;;;2.58;0.30;;;;;;;19.93;42.68;101690.31;6200077;23;20001;-86
2022/07/06 10:05:07;;;;;;;2.00;0.20;;;;;;;20.17;42.33;101694.84;6204363;23;20005;-87
2022/07/06 10:07:44;;;;;;;2.28;0.50;;;;;;;20.76;40.61;101692.03;6202513;23;20031;-87
2022/07/06 10:10:22;;;;;;;4.28;0.38;;;;;;;21.30;39.52;101690.06;6204643;23;20021;-85
2022/07/06 10:13:02;;;;;;;1.90;0.32;;;;;;;21.48;38.71;101693.81;6229464;23;20016;-87
2022/07/06 10:15:34;;;;;;;1.45;0.70;;;;;;;21.49;38.80;101698.25;6180043;23;20044;-86
2022/07/06 10:20:56;;;;;;;9.07;1.70;;;;;;;21.32;39.42;101693.56;6199667;23;20028;-85
2022/07/06 10:23:30;;;;;;;1.23;0.40;;;;;;;21.47;38.78;101687.66;6227034;23;20015;-85
2022/07/06 10:26:07;;;;;;;1.13;0.30;;;;;;;21.43;38.42;101688.69;6224350;23;20028;-85
2022/07/06 10:28:42;;;;;;;4.57;0.77;;;;;;;21.12;39.05;101696.97;6203581;23;20055;-85
2022/07/06 10:31:11;;;;;;;0.32;0.32;;;;;;;20.74;38.45;101696.53;6206905;23;20023;-86
2022/07/06 10:33:46;;;;;;;0.52;0.25;;;;;;;20.50;38.21;101702.59;6208147;23;20008;-86
2022/07/06 10:36:16;;;;;;;1.05;0.30;;;;;;;20.26;38.80;101700.75;6206229;23;20036;-87
2022/07/06 10:41:02;;;;;;;3.45;0.75;;;;;;;19.85;39.24;101705.63;6205014;23;20083;-86
2022/07/06 10:42:31;;;;;;;;;;;;;;;19.76;40.10;101706.75;6229152;23;20040;-86
2022/07/06 10:49:31;;;;;;;2.40;0.38;;;;;;;19.81;39.31;101694.19;6225152;23;20029;-87
2022/07/06 10:52:07;;;;;;;4.57;1.02;;;;;;;19.62;39.69;101699.19;6220300;23;20013;-85
2022/07/06 10:54:48;;;;;;;2.92;0.35;;;;;;;19.81;39.99;101692.41;6198056;23;20400;-86
2022/07/06 10:57:25;;;;;;;5.25;0.43;;;;;;;20.13;39.29;101697.66;6198596;23;20158;-87
2022/07/06 11:00:14;;;;;;;1.10;0.20;;;;;;;20.79;38.14;101687.47;6200466;23;20025;-87
2022/07/06 11:02:47;;;;;;;3.00;0.65;;;;;;;21.83;36.15;101683.63;6222753;23;20040;-86
2022/07/06 11:05:44;;;;;;;1.92;0.30;;;;;;;22.77;34.29;101674.38;6201501;23;20025;-87
2022/07/06 11:08:20;;;;;;;2.15;0.28;;;;;;;22.69;34.71;101670.34;6199310;23;20021;-85
2022/07/06 11:11:01;;;;;;;2.58;0.20;;;;;;;22.23;34.88;101671.34;6200956;23;20028;-86
2022/07/06 11:14:29;;;;;;;0.15;0.10;;;;;;;20.89;37.17;101677.34;6211598;23;20027;-86
2022/07/06 11:21:39;;;;;;;1.85;0.30;;;;;;;19.56;40.44;101681.66;6074828;23;20018;-87
2022/07/06 11:24:42;;;;;;;0.73;0.40;;;;;;;19.28;41.69;101673.63;6229146;23;20062;-86
2022/07/06 11:27:17;;;;;;;0.75;0.35;;;;;;;19.04;42.08;101677.88;6201322;23;20055;-87
2022/07/06 11:30:06;;;;;;;3.90;0.65;;;;;;;19.08;42.09;101683.03;6205925;23;20028;-86
2022/07/06 11:33:04;;;;;;;2.55;0.20;;;;;;;19.13;41.92;101680.25;6185542;23;20024;-86
2022/07/06 11:38:29;;;;;;;4.82;0.50;;;;;;;19.00;41.85;101677.94;6208391;23;20013;-86
2022/07/06 11:41:13;;;;;;;2.05;0.47;;;;;;;19.01;41.20;101676.19;6203875;23;20031;-84
2022/07/06 11:43:56;;;;;;;0.20;0.20;;;;;;;18.80;40.66;101674.97;6225209;23;20008;-86
2022/07/06 11:52:50;;;;;;;4.45;0.45;;;;;;;19.01;40.72;101670.88;6202678;23;20116;-86
2022/07/06 11:55:41;;;;;;;0.82;0.13;;;;;;;19.06;40.84;101679.56;6228707;23;20027;-87
2022/07/06 11:58:15;;;;;;;1.00;0.32;;;;;;;18.98;41.25;101671.81;6226558;23;20049;-84
2022/07/06 12:00:45;;;;;;;1.90;0.57;;;;;;;18.91;41.41;101677.34;6194798;23;20107;-85
2022/07/06 12:03:12;;;;;;;1.13;0.17;;;;;;;18.86;41.98;101680.06;6216079;23;20020;-86
2022/07/06 12:05:39;;;;;;;1.38;0.30;;;;;;;18.87;42.34;101678.31;6214118;23;20012;-83
2022/07/06 12:08:09;;;;;;;0.80;0.20;;;;;;;18.85;42.29;101675.69;6213425;23;20024;-85